Time;durP1;ratioP1;P1;durP2;ratioP2;P2;SDS_P1;SDS_P2;PMS_P1;PMS_P2;Temp;Humidity;BMP_temperature;BMP_pressure;BME280_temperature;BME280_humidity;BME280_pressure;Samples;Min_cycle;Max_cycle;Signal;HPM_P1;HPM_P2
2022/03/27 00:00:19;;;;;;;12.63;5.90;;;;;;;10.77;72.46;103075.59;5272724;28;20036;-75
2022/03/27 00:02:51;;;;;;;7.77;5.70;;;;;;;10.76;72.50;103071.25;5262457;28;20518;-75
2022/03/27 00:05:22;;;;;;;7.97;6.00;;;;;;;10.76;72.02;103074.75;5263569;28;20041;-75
2022/03/27 00:07:53;;;;;;;9.07;6.10;;;;;;;10.81;72.03;103072.00;5251372;28;20503;-75
2022/03/27 00:10:25;;;;;;;10.90;6.10;;;;;;;10.60;73.22;103076.00;5266109;28;20033;-75
2022/03/27 00:12:56;;;;;;;9.90;5.80;;;;;;;10.81;72.24;103079.00;5274622;28;20016;-75
2022/03/27 00:15:28;;;;;;;9.60;6.33;;;;;;;10.49;73.62;103063.19;5261267;28;20039;-76
2022/03/27 00:17:59;;;;;;;10.47;6.10;;;;;;;10.56;73.39;103064.72;5265754;28;20032;-75
2022/03/27 00:20:30;;;;;;;10.23;6.20;;;;;;;10.65;72.97;103077.63;5269743;28;20021;-75
2022/03/27 00:23:01;;;;;;;7.13;5.37;;;;;;;10.57;72.62;103055.13;5262463;28;20029;-75
2022/03/27 00:25:33;;;;;;;9.83;5.30;;;;;;;10.44;73.99;103057.16;5263823;28;20062;-75
2022/03/27 00:28:04;;;;;;;8.80;5.20;;;;;;;10.25;74.85;103079.38;5262491;28;20074;-75
2022/03/27 00:30:35;;;;;;;8.30;5.17;;;;;;;10.37;74.47;103054.66;5260538;28;20391;-75
2022/03/27 00:33:07;;;;;;;7.57;5.23;;;;;;;10.30;75.42;103068.78;5260926;28;20443;-75
2022/03/27 00:35:39;;;;;;;8.90;6.10;;;;;;;10.39;74.67;103058.13;5261191;28;20384;-75
2022/03/27 00:38:11;;;;;;;10.03;5.10;;;;;;;10.17;75.56;103053.34;5270521;28;20492;-75
2022/03/27 00:40:42;;;;;;;14.03;6.10;;;;;;;10.21;76.02;103072.47;5266102;28;20017;-75
2022/03/27 00:43:13;;;;;;;7.87;5.20;;;;;;;10.32;75.51;103064.38;5263911;28;20052;-75
2022/03/27 00:45:46;;;;;;;8.23;4.73;;;;;;;10.21;76.39;103071.63;5274190;28;20045;-75
2022/03/27 00:48:20;;;;;;;10.33;5.50;;;;;;;10.17;76.28;103068.22;5264561;28;20479;-75
2022/03/27 00:50:52;;;;;;;8.83;5.40;;;;;;;10.24;76.28;103063.69;5233295;28;20033;-75
2022/03/27 00:53:24;;;;;;;7.87;4.90;;;;;;;10.10;77.13;103064.00;5287372;28;20339;-75
2022/03/27 00:55:55;;;;;;;6.50;4.60;;;;;;;10.09;76.76;103052.66;5292653;28;20420;-75
2022/03/27 00:58:27;;;;;;;10.57;5.50;;;;;;;10.11;76.52;103069.22;5271973;28;20071;-75
2022/03/27 01:01:01;;;;;;;8.27;4.67;;;;;;;10.22;76.97;103066.38;5285597;28;20056;-75
2022/03/27 01:03:33;;;;;;;8.65;5.47;;;;;;;10.13;76.86;103061.31;5296311;22;20048;-75
2022/03/27 01:06:16;;;;;;;7.93;4.97;;;;;;;9.83;78.44;103043.63;5279706;28;20040;-75
2022/03/27 01:11:38;;;;;;;6.77;4.90;;;;;;;10.00;77.61;103060.75;5258678;28;20024;-75
2022/03/27 01:14:09;;;;;;;6.90;5.37;;;;;;;10.01;77.79;103057.22;5279780;28;20359;-75
2022/03/27 01:16:43;;;;;;;8.77;4.70;;;;;;;10.04;77.19;103065.88;5273761;28;20032;-74
2022/03/27 01:19:15;;;;;;;9.37;5.90;;;;;;;9.98;77.15;103052.94;5272356;28;20025;-75
2022/03/27 01:21:47;;;;;;;9.77;6.27;;;;;;;9.97;77.73;103055.56;5275017;28;20736;-74
2022/03/27 01:24:18;;;;;;;8.00;5.67;;;;;;;9.73;78.24;103045.59;5292397;28;20028;-75
2022/03/27 01:26:50;;;;;;;6.60;5.13;;;;;;;9.98;77.70;103057.28;5281356;28;20077;-75
2022/03/27 01:29:21;;;;;;;9.20;5.00;;;;;;;9.68;78.70;103050.94;5292247;28;20489;-75
2022/03/27 01:31:53;;;;;;;11.40;5.90;;;;;;;9.64;78.36;103044.03;5283358;28;20111;-75
2022/03/27 01:34:24;;;;;;;7.47;5.03;;;;;;;9.61;79.42;103054.56;5273927;28;20027;-74
2022/03/27 01:36:56;;;;;;;12.13;5.80;;;;;;;9.68;79.11;103058.78;5291282;28;20116;-75
2022/03/27 01:39:27;;;;;;;9.17;5.40;;;;;;;9.71;78.98;103064.81;5286933;28;20033;-76
2022/03/27 01:41:58;;;;;;;10.80;5.93;;;;;;;9.71;79.38;103052.59;5279008;28;20475;-75
2022/03/27 01:44:30;;;;;;;12.97;6.23;;;;;;;9.44;80.50;103055.72;5268040;28;20055;-75
2022/03/27 01:47:02;;;;;;;9.87;6.53;;;;;;;9.75;79.00;103051.66;5276089;28;20012;-75
2022/03/27 01:49:33;;;;;;;9.57;5.73;;;;;;;9.70;79.16;103055.25;5253086;28;20036;-75
2022/03/27 01:52:05;;;;;;;8.47;6.17;;;;;;;9.54;79.26;103047.72;5271395;28;20051;-75
2022/03/27 01:54:36;;;;;;;10.97;6.40;;;;;;;9.42;80.22;103052.31;5262425;28;20053;-75
2022/03/27 01:57:07;;;;;;;8.83;5.83;;;;;;;9.53;80.16;103053.84;5252476;28;20039;-75
2022/03/27 01:59:39;;;;;;;7.17;5.57;;;;;;;9.46;80.50;103062.69;5289629;28;20032;-75
2022/03/27 02:02:10;;;;;;;8.97;6.30;;;;;;;9.55;79.76;103058.16;5264155;28;20047;-75
2022/03/27 02:04:41;;;;;;;10.13;5.93;;;;;;;9.42;79.97;103049.69;5286373;28;20098;-75
2022/03/27 02:07:12;;;;;;;7.97;6.63;;;;;;;9.55;79.31;103052.91;5270809;28;20056;-75
2022/03/27 02:09:45;;;;;;;9.10;6.73;;;;;;;9.39;80.78;103054.97;5253116;28;20090;-75
2022/03/27 02:12:16;;;;;;;8.33;6.47;;;;;;;9.52;80.51;103052.97;5281327;28;20032;-74
2022/03/27 02:14:47;;;;;;;11.80;7.67;;;;;;;9.24;81.75;103050.91;5281896;28;20047;-75
2022/03/27 02:17:18;;;;;;;15.20;7.30;;;;;;;9.28;81.40;103049.09;5295131;28;20067;-75
2022/03/27 02:19:50;;;;;;;9.43;7.73;;;;;;;9.27;81.57;103049.97;5272705;28;20032;-75
2022/03/27 02:22:21;;;;;;;10.83;7.47;;;;;;;9.23;81.69;103048.31;5274694;28;20061;-75
2022/03/27 02:24:52;;;;;;;9.70;7.10;;;;;;;9.25;81.04;103049.16;5295033;28;20044;-75
2022/03/27 02:27:23;;;;;;;10.63;7.73;;;;;;;9.17;81.67;103047.53;5285753;28;20040;-74
2022/03/27 02:29:55;;;;;;;12.13;7.60;;;;;;;9.25;81.37;103055.22;5275015;28;20056;-74
2022/03/27 02:32:26;;;;;;;8.60;7.00;;;;;;;9.20;82.00;103044.84;5277036;28;20043;-74
2022/03/27 02:34:57;;;;;;;10.23;7.40;;;;;;;9.14;82.17;103051.94;5294967;28;20032;-76
2022/03/27 02:37:28;;;;;;;10.37;7.90;;;;;;;9.17;82.24;103050.16;5275566;28;20062;-75
2022/03/27 02:40:00;;;;;;;10.73;7.17;;;;;;;8.99;83.13;103040.03;5283523;28;20124;-74
2022/03/27 02:42:31;;;;;;;9.43;7.87;;;;;;;9.18;82.40;103036.16;5276788;28;20024;-74
2022/03/27 02:45:02;;;;;;;10.13;8.30;;;;;;;9.11;83.25;103052.84;5282234;28;20036;-75
2022/03/27 02:47:34;;;;;;;11.03;8.47;;;;;;;8.92;85.14;103050.56;5286392;28;20064;-75
2022/03/27 02:50:06;;;;;;;11.73;9.10;;;;;;;9.08;84.25;103042.47;5282837;28;20079;-75
2022/03/27 02:52:37;;;;;;;12.27;10.17;;;;;;;9.23;83.57;103045.69;5294348;28;20078;-75
2022/03/27 02:55:08;;;;;;;12.97;10.90;;;;;;;9.32;83.41;103048.97;5265537;28;20029;-75
2022/03/27 02:57:40;;;;;;;15.60;10.67;;;;;;;9.08;84.49;103037.22;5285806;28;20512;-74
2022/03/27 03:00:12;;;;;;;18.07;11.57;;;;;;;9.28;84.18;103041.25;5294681;28;20122;-75
2022/03/27 03:02:43;;;;;;;16.47;12.77;;;;;;;9.06;85.91;103039.88;5282408;28;20116;-75
2022/03/27 03:05:15;;;;;;;18.43;13.30;;;;;;;9.04;86.59;103038.19;5295216;28;20031;-75
2022/03/27 03:07:46;;;;;;;18.23;12.40;;;;;;;9.05;86.30;103034.69;5279541;28;20039;-75
2022/03/27 03:10:18;;;;;;;15.53;12.83;;;;;;;9.07;86.83;103043.38;5273693;28;20165;-74
2022/03/27 03:12:49;;;;;;;15.67;13.63;;;;;;;9.18;85.71;103028.31;5285280;28;20111;-74
2022/03/27 03:15:23;;;;;;;18.67;13.93;;;;;;;9.15;86.25;103046.69;5243944;28;20480;-75
2022/03/27 03:17:55;;;;;;;18.00;13.63;;;;;;;9.09;86.77;103036.34;5252632;28;20051;-74
2022/03/27 03:20:27;;;;;;;15.50;13.70;;;;;;;9.04;86.74;103023.34;5251563;28;20021;-75
2022/03/27 03:22:59;;;;;;;17.60;13.67;;;;;;;9.07;87.50;103027.69;5260440;28;20024;-75
2022/03/27 03:25:31;;;;;;;18.47;14.13;;;;;;;9.22;86.59;103031.75;5293578;28;20386;-75
2022/03/27 03:28:02;;;;;;;17.27;12.60;;;;;;;9.10;86.94;103032.84;5279269;28;20028;-75
2022/03/27 03:30:34;;;;;;;17.33;13.00;;;;;;;9.03;87.37;103026.00;5263438;28;20024;-75
2022/03/27 03:33:05;;;;;;;15.70;13.03;;;;;;;9.00;87.64;103033.91;5281963;28;20679;-75
2022/03/27 03:35:36;;;;;;;15.40;13.13;;;;;;;8.81;88.75;103021.16;5284518;28;20032;-75
2022/03/27 03:38:07;;;;;;;17.00;12.67;;;;;;;8.97;88.51;103031.34;5273527;28;20025;-75
2022/03/27 03:40:41;;;;;;;15.07;12.53;;;;;;;9.05;87.66;103030.31;5281248;28;20020;-75
2022/03/27 03:43:13;;;;;;;17.17;13.03;;;;;;;9.08;87.85;103032.00;5281391;28;20024;-75
2022/03/27 03:45:44;;;;;;;15.10;13.30;;;;;;;9.04;87.96;103027.75;5266876;28;20572;-75
2022/03/27 03:48:15;;;;;;;20.43;14.20;;;;;;;8.97;88.71;103031.34;5252126;28;20025;-75
2022/03/27 03:50:46;;;;;;;18.43;15.37;;;;;;;9.02;88.19;103019.06;5292690;28;20039;-75
2022/03/27 03:53:18;;;;;;;17.73;14.53;;;;;;;8.95;88.45;103021.75;5272793;28;20017;-75
2022/03/27 03:55:49;;;;;;;30.37;14.97;;;;;;;9.02;87.97;103019.06;5273286;28;20032;-75
2022/03/27 03:58:20;;;;;;;18.33;13.47;;;;;;;9.07;88.02;103032.91;5290026;28;20111;-74
2022/03/27 04:00:51;;;;;;;18.03;13.77;;;;;;;9.02;88.78;103032.13;5288131;28;20023;-75
2022/03/27 04:03:22;;;;;;;18.83;13.33;;;;;;;9.04;88.68;103035.59;5272722;28;20048;-75
2022/03/27 04:05:54;;;;;;;16.53;13.70;;;;;;;8.93;88.88;103035.75;5272799;28;20035;-75
2022/03/27 04:08:25;;;;;;;14.83;13.20;;;;;;;8.97;89.00;103032.22;5273063;28;20039;-75
2022/03/27 04:10:56;;;;;;;15.60;13.40;;;;;;;8.93;89.00;103025.31;5272730;28;20028;-75
2022/03/27 04:13:28;;;;;;;14.57;12.97;;;;;;;9.04;88.15;103031.19;5292610;28;20564;-75
2022/03/27 04:16:00;;;;;;;15.00;13.47;;;;;;;8.99;89.21;103037.41;5285443;28;20028;-75
2022/03/27 04:18:31;;;;;;;14.33;12.63;;;;;;;8.97;89.71;103032.22;5255008;28;20028;-75
2022/03/27 04:21:03;;;;;;;15.37;13.27;;;;;;;8.99;89.69;103037.41;5272883;28;20459;-74
2022/03/27 04:23:35;;;;;;;15.23;13.63;;;;;;;8.90;89.44;103020.97;5259879;28;20028;-74
2022/03/27 04:26:07;;;;;;;15.57;13.53;;;;;;;9.03;88.82;103036.44;5272387;28;20016;-75
2022/03/27 04:28:38;;;;;;;15.50;13.90;;;;;;;8.98;89.39;103030.44;5290414;28;20024;-75
2022/03/27 04:31:09;;;;;;;16.27;14.57;;;;;;;8.98;89.03;103020.00;5291241;28;20517;-75
2022/03/27 04:33:40;;;;;;;15.77;14.20;;;;;;;9.06;89.13;103032.03;5293079;28;20039;-75
2022/03/27 04:36:11;;;;;;;15.23;13.40;;;;;;;8.88;89.34;103020.16;5273372;28;20518;-75
2022/03/27 04:38:43;;;;;;;16.23;14.33;;;;;;;8.84;90.04;103026.31;5293166;28;20032;-75
2022/03/27 04:41:14;;;;;;;17.50;14.40;;;;;;;8.95;89.69;103034.00;5291650;28;20024;-75
2022/03/27 04:43:48;;;;;;;16.10;14.40;;;;;;;8.95;89.52;103034.84;5286620;28;20897;-75
2022/03/27 04:46:19;;;;;;;17.80;15.10;;;;;;;8.89;89.77;103024.50;5288909;28;20413;-75
2022/03/27 04:48:50;;;;;;;17.00;15.23;;;;;;;8.85;90.34;103041.09;5290025;28;20031;-75
2022/03/27 04:51:21;;;;;;;19.27;15.53;;;;;;;8.89;90.30;103032.34;5273007;28;20157;-75
2022/03/27 04:53:53;;;;;;;17.33;15.13;;;;;;;8.90;90.17;103035.81;5293178;28;20592;-75
2022/03/27 04:56:24;;;;;;;18.43;16.53;;;;;;;8.85;90.63;103028.03;5283336;28;20485;-75
2022/03/27 04:58:55;;;;;;;17.97;16.20;;;;;;;8.89;90.45;103029.72;5271608;28;20025;-75
2022/03/27 05:01:27;;;;;;;18.43;16.43;;;;;;;8.73;91.45;103036.13;5254208;28;21817;-75
2022/03/27 05:03:58;;;;;;;20.40;18.03;;;;;;;8.78;91.74;103044.75;5252895;28;20555;-75
2022/03/27 05:06:30;;;;;;;19.40;16.87;;;;;;;8.77;91.84;103041.25;5273252;28;20081;-75
2022/03/27 05:09:01;;;;;;;22.67;18.27;;;;;;;8.76;91.15;103046.50;5271038;28;20024;-75
2022/03/27 05:11:33;;;;;;;21.83;17.43;;;;;;;8.68;91.77;103052.72;5290871;28;20026;-73
2022/03/27 05:14:04;;;;;;;21.13;18.93;;;;;;;8.66;91.68;103053.59;5298057;28;20185;-75
2022/03/27 05:16:35;;;;;;;23.53;18.80;;;;;;;8.67;92.09;103055.34;5275611;28;20477;-75
2022/03/27 05:19:07;;;;;;;21.17;18.97;;;;;;;8.56;92.42;103055.50;5271563;28;20044;-75
2022/03/27 05:21:38;;;;;;;21.80;18.50;;;;;;;8.59;92.77;103043.28;5272451;28;20097;-75
2022/03/27 05:24:09;;;;;;;22.10;19.77;;;;;;;8.73;92.15;103057.00;5262868;28;20025;-75
2022/03/27 05:26:41;;;;;;;22.37;19.77;;;;;;;8.61;92.42;103042.38;5253321;28;20031;-75
2022/03/27 05:29:13;;;;;;;23.67;21.27;;;;;;;8.61;92.40;103045.84;5272839;28;20033;-74
2022/03/27 05:31:45;;;;;;;24.00;20.57;;;;;;;8.57;92.89;103059.88;5271927;28;20036;-75
2022/03/27 05:34:16;;;;;;;23.10;20.33;;;;;;;8.43;93.03;103039.16;5270837;28;20032;-75
2022/03/27 05:36:47;;;;;;;22.17;19.77;;;;;;;8.59;92.56;103056.34;5278827;28;20104;-75
2022/03/27 05:39:19;;;;;;;25.40;21.97;;;;;;;8.50;92.97;103058.22;5291782;28;20442;-75
2022/03/27 05:41:50;;;;;;;25.77;21.70;;;;;;;8.50;93.07;103063.44;5287080;28;20515;-74
2022/03/27 05:44:22;;;;;;;24.03;20.90;;;;;;;8.27;93.44;103056.78;5272015;28;20494;-74
2022/03/27 05:46:53;;;;;;;24.20;20.53;;;;;;;8.39;93.25;103059.22;5281730;28;20116;-74
2022/03/27 05:49:24;;;;;;;28.73;20.47;;;;;;;8.21;93.69;103048.16;5275061;28;20025;-74
2022/03/27 05:51:55;;;;;;;23.20;20.50;;;;;;;8.32;93.44;103060.19;5275311;28;20032;-74
2022/03/27 05:54:27;;;;;;;24.20;20.50;;;;;;;8.29;93.18;103057.63;5274887;28;20027;-74
2022/03/27 05:56:58;;;;;;;24.30;21.13;;;;;;;8.25;93.36;103053.34;5280765;28;20359;-75
2022/03/27 05:59:29;;;;;;;23.13;20.27;;;;;;;8.42;92.87;103061.78;5296615;28;20087;-74
2022/03/27 06:02:01;;;;;;;22.07;19.27;;;;;;;8.34;92.92;103061.03;5280456;28;20168;-75
2022/03/27 06:04:32;;;;;;;21.17;18.93;;;;;;;8.42;92.39;103077.47;5275233;28;20049;-75
2022/03/27 06:07:04;;;;;;;23.37;20.87;;;;;;;8.32;93.13;103081.09;5280253;28;20028;-75
2022/03/27 06:09:36;;;;;;;25.97;20.37;;;;;;;8.22;93.51;103080.38;5256917;28;20877;-75
2022/03/27 06:12:07;;;;;;;20.90;18.60;;;;;;;8.33;92.70;103082.81;5280161;28;20733;-75
2022/03/27 06:14:39;;;;;;;24.97;20.07;;;;;;;8.27;93.59;103088.13;5287487;28;20071;-75
2022/03/27 06:17:10;;;;;;;24.63;19.10;;;;;;;8.18;93.40;103087.38;5279313;28;20043;-74
2022/03/27 06:19:41;;;;;;;23.93;19.40;;;;;;;8.14;93.37;103085.66;5283832;28;20067;-75
2022/03/27 06:22:13;;;;;;;20.67;17.57;;;;;;;8.19;93.56;103083.00;5257503;28;20032;-75
2022/03/27 06:24:44;;;;;;;20.67;17.90;;;;;;;8.27;91.83;103086.38;5264995;28;20040;-74
2022/03/27 06:27:15;;;;;;;23.97;18.90;;;;;;;8.26;91.93;103087.25;5278675;28;20501;-74
2022/03/27 06:29:46;;;;;;;22.43;17.87;;;;;;;8.25;92.86;103087.28;5257453;28;20502;-75
2022/03/27 06:32:18;;;;;;;23.73;19.20;;;;;;;8.29;92.40;103091.59;5272615;28;20592;-74
2022/03/27 06:34:49;;;;;;;24.50;19.03;;;;;;;8.19;92.58;103086.47;5275523;28;20399;-74
2022/03/27 06:37:20;;;;;;;24.83;19.53;;;;;;;8.18;93.06;103084.75;5274784;28;20032;-73
2022/03/27 06:39:54;;;;;;;27.17;19.33;;;;;;;8.21;93.08;103089.94;5287053;28;20086;-75
2022/03/27 06:42:26;;;;;;;25.43;19.93;;;;;;;8.13;93.22;103081.34;5281120;28;20016;-74
2022/03/27 06:44:58;;;;;;;31.00;22.13;;;;;;;8.19;93.24;103099.53;5290328;28;20028;-76
2022/03/27 06:47:30;;;;;;;25.47;21.13;;;;;;;8.40;92.49;103094.00;5275688;28;20024;-79
2022/03/27 06:50:02;;;;;;;26.53;21.90;;;;;;;8.30;92.02;103088.94;5273901;28;20028;-80
2022/03/27 06:52:34;;;;;;;29.73;22.57;;;;;;;8.23;93.20;103089.91;5279494;28;20028;-75
2022/03/27 06:55:08;;;;;;;27.33;21.50;;;;;;;8.33;92.29;103098.47;5288815;28;20028;-75
2022/03/27 06:57:40;;;;;;;26.92;21.67;;;;;;;8.31;92.33;103089.78;5285965;28;20020;-75
2022/03/27 07:03:04;;;;;;;27.73;22.23;;;;;;;8.37;91.92;103094.06;5272580;28;20041;-75
2022/03/27 07:05:39;;;;;;;33.27;22.90;;;;;;;8.16;93.48;103091.75;5282355;28;20020;-75
2022/03/27 07:08:15;;;;;;;31.58;23.85;;;;;;;8.30;93.21;103103.75;5274159;28;20609;-75
2022/03/27 07:10:48;;;;;;;36.13;24.20;;;;;;;8.18;93.59;103094.31;5266934;28;20252;-75
2022/03/27 07:13:20;;;;;;;34.73;23.13;;;;;;;8.36;93.29;103098.41;5285582;28;20431;-76
2022/03/27 07:15:52;;;;;;;33.00;24.00;;;;;;;8.12;93.42;103090.03;5274923;28;20033;-74
2022/03/27 07:18:24;;;;;;;33.93;24.77;;;;;;;8.13;94.41;103101.34;5291271;28;20020;-77
2022/03/27 07:20:55;;;;;;;31.57;24.40;;;;;;;8.30;93.54;103093.28;5287471;28;20448;-76
2022/03/27 07:23:28;;;;;;;34.47;26.37;;;;;;;8.31;93.64;103101.09;5293951;28;20088;-76
2022/03/27 07:26:00;;;;;;;35.07;26.53;;;;;;;8.33;93.78;103098.47;5285469;28;20033;-76
2022/03/27 07:28:32;;;;;;;37.17;26.60;;;;;;;8.35;93.50;103096.69;5272371;28;20024;-76
2022/03/27 07:31:03;;;;;;;36.77;27.33;;;;;;;8.38;93.37;103083.59;5254492;28;20036;-76
2022/03/27 07:33:34;;;;;;;37.57;27.57;;;;;;;8.42;93.19;103097.47;5255222;28;20060;-76
2022/03/27 07:36:05;;;;;;;39.30;28.80;;;;;;;8.20;94.67;103097.78;5273051;28;20060;-76
2022/03/27 07:38:37;;;;;;;38.03;27.77;;;;;;;8.37;94.01;103105.38;5273932;28;20290;-76
2022/03/27 07:41:08;;;;;;;39.33;27.83;;;;;;;8.17;94.35;103083.00;5254911;28;20029;-76
2022/03/27 07:43:40;;;;;;;39.43;26.47;;;;;;;8.27;93.72;103099.44;5273496;28;20029;-76
2022/03/27 07:46:11;;;;;;;37.50;25.63;;;;;;;8.18;93.74;103102.16;5272018;28;20028;-76
2022/03/27 07:48:42;;;;;;;36.30;26.53;;;;;;;8.20;93.49;103096.00;5273459;28;20035;-76
2022/03/27 07:51:13;;;;;;;40.97;22.70;;;;;;;7.87;94.81;103106.88;5272547;28;20074;-76
2022/03/27 07:53:45;;;;;;;36.90;22.50;;;;;;;7.61;96.10;103104.59;5273346;28;20025;-75
2022/03/27 07:56:16;;;;;;;29.57;22.00;;;;;;;7.76;96.12;103108.75;5273054;28;20040;-76
2022/03/27 07:58:48;;;;;;;34.83;23.57;;;;;;;7.77;95.99;103107.03;5263564;28;20087;-76
2022/03/27 08:01:19;;;;;;;34.53;24.57;;;;;;;7.61;96.89;103100.22;5260374;28;20439;-75
2022/03/27 08:03:52;;;;;;;36.80;25.17;;;;;;;7.68;97.22;103100.16;5251332;28;20135;-75
2022/03/27 08:06:23;;;;;;;36.80;24.17;;;;;;;7.68;96.48;103071.47;5254870;28;20108;-75
2022/03/27 08:08:56;;;;;;;31.83;23.90;;;;;;;7.91;95.68;103093.78;5252624;28;20108;-76
2022/03/27 08:11:27;;;;;;;36.13;25.30;;;;;;;7.85;95.56;103097.34;5233704;28;20029;-76
2022/03/27 08:13:58;;;;;;;32.77;24.03;;;;;;;7.94;95.61;103097.22;5251589;28;20380;-75
2022/03/27 08:16:30;;;;;;;35.50;24.53;;;;;;;8.07;94.92;103091.84;5260064;28;20119;-75
2022/03/27 08:19:01;;;;;;;36.37;25.43;;;;;;;7.94;94.94;103092.00;5272360;28;20033;-75
2022/03/27 08:21:33;;;;;;;36.67;24.57;;;;;;;8.10;94.91;103094.41;5271832;28;20021;-75
2022/03/27 08:24:04;;;;;;;34.10;24.27;;;;;;;7.93;94.69;103094.63;5254347;28;20032;-75
2022/03/27 08:29:31;;;;;;;34.80;24.40;;;;;;;8.22;94.46;103107.31;5268129;28;20041;-75
2022/03/27 08:32:05;;;;;;;31.47;23.60;;;;;;;8.13;94.33;103097.00;5251195;28;20667;-75
2022/03/27 08:34:37;;;;;;;32.30;25.00;;;;;;;8.33;94.52;103101.06;5259316;28;20655;-75
2022/03/27 08:37:10;;;;;;;28.60;21.57;;;;;;;8.21;93.53;103109.94;5247571;28;20295;-75
2022/03/27 08:39:44;;;;;;;32.03;22.90;;;;;;;8.26;93.12;103107.25;5272316;28;20058;-76
2022/03/27 08:42:19;;;;;;;28.45;23.10;;;;;;;8.30;92.86;103114.19;5271641;28;20423;-76
2022/03/27 08:44:51;;;;;;;31.80;23.87;;;;;;;8.30;92.24;103086.34;5271440;28;20474;-75
2022/03/27 08:47:26;;;;;;;34.00;23.37;;;;;;;8.47;91.88;103106.97;5271336;28;20052;-76
2022/03/27 08:50:13;;;;;;;29.97;22.77;;;;;;;8.39;92.01;103111.47;5271991;28;20082;-75
2022/03/27 08:52:59;;;;;;;29.03;23.40;;;;;;;8.48;91.86;103106.09;5271549;28;20233;-75
2022/03/27 08:55:46;;;;;;;27.07;21.47;;;;;;;8.40;92.44;103102.72;5252224;28;20126;-75
2022/03/27 08:58:20;;;;;;;25.90;21.03;;;;;;;8.34;91.40;103105.44;5250859;28;20108;-75
2022/03/27 09:00:52;;;;;;;;;;;;;;;8.54;90.04;103112.97;5250440;28;20045;-75
2022/03/27 09:03:23;;;;;;;27.87;21.27;;;;;;;8.18;90.89;103113.47;5250418;28;19943;-75
2022/03/27 09:05:54;;;;;;;30.93;22.33;;;;;;;8.20;90.94;103114.28;5250555;28;20052;-75
2022/03/27 09:08:26;;;;;;;27.50;23.53;;;;;;;8.33;91.27;103119.34;5250492;28;20025;-75
2022/03/27 09:10:57;;;;;;;34.67;24.17;;;;;;;8.30;91.06;103103.75;5250749;28;20025;-75
2022/03/27 09:13:29;;;;;;;32.13;23.87;;;;;;;8.26;90.77;103109.88;5250514;28;20443;-75
2022/03/27 09:16:07;;;;;;;29.87;23.47;;;;;;;8.60;89.78;103119.91;5255326;28;20025;-75
2022/03/27 09:18:48;;;;;;;28.73;22.40;;;;;;;8.50;90.16;103126.94;5270999;28;20476;-75
2022/03/27 09:21:22;;;;;;;28.43;21.47;;;;;;;8.56;89.37;103121.69;5271157;28;20020;-75
2022/03/27 09:24:00;;;;;;;26.77;20.98;;;;;;;8.56;89.30;103136.50;5270614;28;20033;-75
2022/03/27 09:26:32;;;;;;;29.50;22.40;;;;;;;8.41;90.04;103121.88;5271382;28;20021;-75
2022/03/27 09:29:09;;;;;;;29.40;20.87;;;;;;;8.55;88.98;103130.38;5270840;28;20028;-75
2022/03/27 09:31:40;;;;;;;27.87;21.57;;;;;;;8.48;89.18;103128.75;5264654;28;20112;-75
2022/03/27 09:34:12;;;;;;;24.70;20.07;;;;;;;8.53;89.12;103126.06;5250017;28;20551;-75
2022/03/27 09:36:44;;;;;;;24.13;18.77;;;;;;;8.51;89.77;103130.44;5250662;28;20045;-75
2022/03/27 09:39:20;;;;;;;26.50;18.83;;;;;;;8.62;88.94;103125.97;5250028;28;20040;-74
2022/03/27 09:41:54;;;;;;;24.00;19.37;;;;;;;8.65;88.85;103120.69;5250591;28;20606;-74
2022/03/27 09:44:28;;;;;;;22.90;19.67;;;;;;;8.65;89.58;103120.69;5248850;28;20037;-74
2022/03/27 09:47:05;;;;;;;24.52;19.42;;;;;;;8.46;90.09;103120.94;5263460;28;20029;-74
2022/03/27 09:49:37;;;;;;;24.27;19.47;;;;;;;8.70;89.27;103113.66;5258429;28;20033;-74
2022/03/27 09:52:14;;;;;;;24.40;18.63;;;;;;;8.54;90.13;103110.34;5252031;28;20035;-74
2022/03/27 09:54:55;;;;;;;26.80;21.13;;;;;;;8.55;90.04;103114.72;5250093;28;20048;-79
2022/03/27 09:57:27;;;;;;;26.33;19.87;;;;;;;8.57;89.79;103107.72;5253619;28;20032;-80
2022/03/27 10:00:20;;;;;;;27.03;20.90;;;;;;;8.69;90.57;103096.22;5268075;28;20085;-79
2022/03/27 10:02:51;;;;;;;25.40;20.70;;;;;;;8.45;90.63;103098.28;5268685;28;20128;-78
2022/03/27 10:05:23;;;;;;;27.17;20.57;;;;;;;8.62;90.34;103099.84;5259930;28;20103;-79
2022/03/27 10:07:56;;;;;;;27.83;20.80;;;;;;;8.58;90.80;103090.31;5270243;28;20103;-79
2022/03/27 10:10:28;;;;;;;24.38;19.63;;;;;;;8.70;89.63;103073.59;5269221;28;20067;-78
2022/03/27 10:13:00;;;;;;;26.30;20.40;;;;;;;8.98;89.09;103078.38;5270917;28;20040;-77
2022/03/27 10:15:31;;;;;;;28.37;20.53;;;;;;;9.14;87.39;103065.91;5269901;28;20025;-78
2022/03/27 10:18:20;;;;;;;23.20;19.10;;;;;;;9.24;87.41;103087.50;5274888;28;20032;-80
2022/03/27 10:20:57;;;;;;;22.53;19.10;;;;;;;9.28;87.18;103086.56;5272110;28;20024;-79
2022/03/27 10:23:31;;;;;;;23.97;18.53;;;;;;;9.36;87.15;103073.34;5270989;28;20024;-80
2022/03/27 10:26:03;;;;;;;27.65;21.13;;;;;;;9.42;86.18;103085.44;5252582;28;20013;-76
2022/03/27 10:28:34;;;;;;;29.47;21.43;;;;;;;9.49;86.06;103081.81;5271152;28;20025;-76
2022/03/27 10:31:07;;;;;;;24.40;19.40;;;;;;;9.53;85.46;103073.00;5269297;28;20023;-76
2022/03/27 10:33:39;;;;;;;22.37;19.43;;;;;;;9.58;85.19;103077.28;5272029;28;20029;-85
2022/03/27 10:36:21;;;;;;;21.30;17.80;;;;;;;9.95;84.99;103079.16;5256866;28;20032;-74
2022/03/27 10:39:31;;;;;;;21.97;18.97;;;;;;;10.46;83.26;103066.69;5275006;28;20071;-78
2022/03/27 10:42:24;;;;;;;22.73;18.63;;;;;;;10.95;81.39;103068.16;5259634;28;20133;-77
2022/03/27 10:44:57;;;;;;;19.63;17.07;;;;;;;11.33;77.96;103063.66;5239034;28;20103;-75
2022/03/27 10:47:31;;;;;;;18.97;16.37;;;;;;;12.17;74.41;103063.03;5259480;28;20020;-85
2022/03/27 10:50:05;;;;;;;19.52;16.10;;;;;;;12.79;71.85;103062.81;5273469;28;20027;-80
2022/03/27 10:52:43;;;;;;;20.67;17.20;;;;;;;12.73;70.38;103065.66;5274106;28;20446;-80
2022/03/27 10:55:16;;;;;;;19.33;16.73;;;;;;;12.96;68.92;103061.41;5275971;28;20475;-79
2022/03/27 10:57:51;;;;;;;21.07;17.03;;;;;;;13.37;67.17;103067.88;5269707;28;20091;-80
2022/03/27 11:00:40;;;;;;;20.07;17.70;;;;;;;12.95;70.10;103064.94;5262048;28;20041;-81
2022/03/27 11:03:48;;;;;;;22.53;19.37;;;;;;;13.55;69.91;103061.97;5233792;28;21094;-84
2022/03/27 11:06:28;;;;;;;24.30;18.40;;;;;;;13.71;67.40;103058.75;5242699;28;20035;-85
2022/03/27 11:09:02;;;;;;;20.37;17.90;;;;;;;13.60;65.85;103064.44;5251903;28;20037;-83
2022/03/27 11:11:33;;;;;;;18.77;16.77;;;;;;;13.55;66.21;103054.06;5252995;28;20032;-85
2022/03/27 11:14:07;;;;;;;20.50;18.30;;;;;;;13.38;66.62;103043.28;5266663;28;20380;-79
2022/03/27 11:17:07;;;;;;;19.17;17.17;;;;;;;13.25;67.30;103027.94;5253315;28;20025;-78
2022/03/27 11:19:43;;;;;;;29.33;17.37;;;;;;;12.96;66.69;103040.34;5252230;28;20033;-77
2022/03/27 11:22:47;;;;;;;20.73;16.83;;;;;;;13.40;66.60;103028.28;5251271;28;20376;-82
2022/03/27 11:25:37;;;;;;;20.80;17.35;;;;;;;13.60;66.17;103040.72;5252685;28;20021;-83
2022/03/27 11:28:12;;;;;;;22.77;17.53;;;;;;;12.85;66.27;103040.72;5239183;28;20107;-76
2022/03/27 11:30:50;;;;;;;19.50;17.30;;;;;;;12.98;67.12;103029.78;5245330;28;20108;-75
2022/03/27 11:33:23;;;;;;;20.10;18.00;;;;;;;13.02;67.22;103026.97;5247007;28;20479;-76
2022/03/27 11:36:09;;;;;;;19.93;17.67;;;;;;;13.30;66.34;103025.13;5249837;28;20051;-77
2022/03/27 11:38:54;;;;;;;19.70;17.63;;;;;;;13.46;66.10;103028.06;5248348;28;20108;-76
2022/03/27 11:41:48;;;;;;;20.87;17.47;;;;;;;13.76;64.83;103030.47;5249084;28;20067;-76
2022/03/27 11:45:06;;;;;;;19.33;17.33;;;;;;;13.44;64.65;103024.59;5245315;28;20025;-76
2022/03/27 11:47:33;;;;;;;21.03;18.57;;;;;;;13.40;65.22;103023.03;5248422;28;20052;-73
2022/03/27 11:50:04;;;;;;;;;;;;;;;13.84;65.17;103022.25;5241794;28;20044;-78
2022/03/27 11:52:36;;;;;;;20.87;17.90;;;;;;;13.89;63.43;103022.09;5247790;28;19917;-76
2022/03/27 11:55:12;;;;;;;18.57;16.63;;;;;;;13.55;63.99;103011.09;5248862;28;20032;-78